createdAt,value
2019-04-28T00:00:57.615Z,9.37
2019-04-28T00:03:28.175Z,9.07
2019-04-28T00:05:58.758Z,10.53
2019-04-28T00:08:29.466Z,9.63
2019-04-28T00:11:01.806Z,10.03
2019-04-28T00:13:32.491Z,9.13
2019-04-28T00:16:03.089Z,7.90
2019-04-28T00:18:33.552Z,7.57
2019-04-28T00:21:21.743Z,6.57
2019-04-28T00:23:53.783Z,6.70
2019-04-28T00:26:43.738Z,7.03
2019-04-28T00:29:14.300Z,6.27
2019-04-28T00:31:44.809Z,6.37
2019-04-28T00:34:15.197Z,6.03
2019-04-28T00:36:47.339Z,6.23
2019-04-28T00:39:17.797Z,5.37
2019-04-28T00:41:48.300Z,5.83
2019-04-28T00:44:21.732Z,5.67
2019-04-28T00:46:52.288Z,6.17
2019-04-28T00:49:41.956Z,7.13
2019-04-28T00:52:12.514Z,7.20
2019-04-28T00:54:43.246Z,6.60
2019-04-28T00:57:13.761Z,5.53
2019-04-28T00:59:53.993Z,6.57
2019-04-28T01:02:18.053Z,6.37
2019-04-28T01:04:48.435Z,6.43
2019-04-28T01:07:18.935Z,6.17
2019-04-28T01:09:51.411Z,6.77
2019-04-28T01:12:21.569Z,6.70
2019-04-28T01:14:52.898Z,6.53
2019-04-28T01:17:25.756Z,7.27
2019-04-28T01:19:59.708Z,7.10
2019-04-28T01:22:30.151Z,7.73
2019-04-28T01:25:00.595Z,7.27
2019-04-28T01:27:32.735Z,7.03
2019-04-28T01:30:08.446Z,7.83
2019-04-28T01:32:41.532Z,8.10
2019-04-28T01:35:12.277Z,7.40
2019-04-28T01:37:42.670Z,8.13
2019-04-28T01:40:13.163Z,8.07
2019-04-28T01:42:43.556Z,8.07
2019-04-28T01:45:14.225Z,8.13
2019-04-28T01:47:44.651Z,8.20
2019-04-28T01:50:15.149Z,8.47
2019-04-28T01:52:45.542Z,8.90
2019-04-28T01:55:15.972Z,7.27
2019-04-28T01:57:46.360Z,7.90
2019-04-28T02:00:25.194Z,7.10
2019-04-28T02:02:51.365Z,7.23
2019-04-28T02:05:22.764Z,7.07
2019-04-28T02:07:53.229Z,6.63
2019-04-28T02:10:23.727Z,6.13
2019-04-28T02:12:54.128Z,7.13
2019-04-28T02:15:24.559Z,6.40
2019-04-28T02:17:54.955Z,6.17
2019-04-28T02:20:25.385Z,6.80
2019-04-28T02:22:57.431Z,6.53
2019-04-28T02:25:29.511Z,6.50
2019-04-28T02:28:00.008Z,6.80
2019-04-28T02:30:42.175Z,6.10
2019-04-28T02:33:02.526Z,7.13
2019-04-28T02:35:34.202Z,9.67
2019-04-28T02:38:05.007Z,9.33
2019-04-28T02:40:35.442Z,8.97
2019-04-28T02:43:05.957Z,7.10
2019-04-28T02:45:37.094Z,7.37
2019-04-28T02:48:11.092Z,7.33
2019-04-28T02:50:54.882Z,6.77
2019-04-28T02:53:26.908Z,6.37
2019-04-28T02:55:57.343Z,6.20
2019-04-28T02:58:28.020Z,6.80
2019-04-28T03:01:11.179Z,6.23
2019-04-28T03:03:31.322Z,6.33
2019-04-28T03:06:01.896Z,6.33
2019-04-28T03:08:32.478Z,6.57
2019-04-28T03:11:02.970Z,6.03
2019-04-28T03:13:33.409Z,6.23
2019-04-28T03:16:03.932Z,6.67
2019-04-28T03:18:34.440Z,6.07
2019-04-28T03:21:04.977Z,6.20
2019-04-28T03:23:35.607Z,6.07
2019-04-28T03:26:07.644Z,5.83
2019-04-28T03:28:45.134Z,5.70
2019-04-28T03:32:01.638Z,6.20
2019-04-28T03:34:05.012Z,6.83
2019-04-28T03:36:35.565Z,5.90
2019-04-28T03:39:10.858Z,6.00
2019-04-28T03:41:40.660Z,6.07
2019-04-28T03:44:11.568Z,5.10
2019-04-28T03:46:52.780Z,5.93
2019-04-28T03:49:34.266Z,5.70
2019-04-28T03:52:10.536Z,5.97
2019-04-28T03:54:40.967Z,5.20
2019-04-28T03:57:11.793Z,5.53
2019-04-28T03:59:43.799Z,6.33
2019-04-28T04:02:14.387Z,6.40
2019-04-28T04:04:44.816Z,5.93
2019-04-28T04:07:15.210Z,6.00
2019-04-28T04:09:47.374Z,5.87
2019-04-28T04:12:25.213Z,17.77
2019-04-28T04:15:00.796Z,6.30
2019-04-28T04:17:37.547Z,6.17
2019-04-28T04:20:11.002Z,7.67
2019-04-28T04:22:41.253Z,6.47
2019-04-28T04:25:12.669Z,7.33
2019-04-28T04:27:43.289Z,7.37
2019-04-28T04:30:13.849Z,9.23
2019-04-28T04:32:44.244Z,9.77
2019-04-28T04:35:14.674Z,8.97
2019-04-28T04:37:45.068Z,8.30
2019-04-28T04:40:15.576Z,7.90
2019-04-28T04:42:45.979Z,7.23
2019-04-28T04:45:16.408Z,6.93
2019-04-28T04:47:46.811Z,6.60
2019-04-28T04:50:17.302Z,6.20
2019-04-28T04:52:50.042Z,6.40
2019-04-28T04:55:21.210Z,7.43
2019-04-28T04:57:51.686Z,7.27
2019-04-28T05:00:35.835Z,6.97
2019-04-28T05:03:07.866Z,7.00
2019-04-28T05:05:40.463Z,7.73
2019-04-28T05:08:15.473Z,8.37
2019-04-28T05:10:44.046Z,9.10
2019-04-28T05:13:14.431Z,8.73
2019-04-28T05:15:44.865Z,9.33
2019-04-28T05:18:15.259Z,9.90
2019-04-28T05:20:45.687Z,9.03
2019-04-28T05:23:23.386Z,11.20
2019-04-28T05:25:53.826Z,12.07
2019-04-28T05:28:24.266Z,12.23
2019-04-28T05:30:54.773Z,12.13
2019-04-28T05:33:33.290Z,12.07
2019-04-28T05:36:02.943Z,11.37
2019-04-28T05:38:32.170Z,10.63
2019-04-28T05:41:02.915Z,10.33
2019-04-28T05:43:33.675Z,10.27
2019-04-28T05:46:04.068Z,9.47
2019-04-28T05:48:36.147Z,9.20
2019-04-28T05:51:09.407Z,8.30
2019-04-28T05:53:44.254Z,8.73
2019-04-28T05:56:16.274Z,9.03
2019-04-28T05:58:54.172Z,8.97
2019-04-28T06:01:43.609Z,9.37
2019-04-28T06:04:14.113Z,10.07
2019-04-28T06:06:46.288Z,9.23
2019-04-28T06:09:20.271Z,9.87
2019-04-28T06:11:50.455Z,9.67
2019-04-28T06:14:20.886Z,11.23
2019-04-28T06:16:51.282Z,11.30
2019-04-28T06:19:21.721Z,12.60
2019-04-28T06:21:52.112Z,12.67
2019-04-28T06:24:22.545Z,12.90
2019-04-28T06:26:52.950Z,10.37
2019-04-28T06:29:23.381Z,11.60
2019-04-28T06:31:53.777Z,10.17
2019-04-28T06:34:24.208Z,8.60
2019-04-28T06:36:54.600Z,7.83
2019-04-28T06:39:25.038Z,7.20
2019-04-28T06:41:55.427Z,6.57
2019-04-28T06:44:26.122Z,6.23
2019-04-28T06:46:56.519Z,6.13
2019-04-28T06:49:27.066Z,6.23
2019-04-28T06:51:57.484Z,6.07
2019-04-28T06:54:28.024Z,5.40
2019-04-28T06:56:58.683Z,6.67
2019-04-28T06:59:29.115Z,5.73
2019-04-28T07:01:59.673Z,5.97
2019-04-28T07:04:30.104Z,5.80
2019-04-28T07:07:00.500Z,5.73
2019-04-28T07:09:30.934Z,5.67
2019-04-28T07:12:01.562Z,6.77
2019-04-28T07:14:32.965Z,6.30
2019-04-28T07:17:03.358Z,6.47
2019-04-28T07:19:33.795Z,7.03
2019-04-28T07:22:05.833Z,6.13
2019-04-28T07:24:36.262Z,5.87
2019-04-28T07:27:07.819Z,5.63
2019-04-28T07:29:38.263Z,5.57
2019-04-28T07:32:08.724Z,5.93
2019-04-28T07:34:39.159Z,5.83
2019-04-28T07:37:09.628Z,5.43
2019-04-28T07:39:40.058Z,5.60
2019-04-28T07:42:10.450Z,5.83
2019-04-28T07:44:40.891Z,5.47
2019-04-28T07:47:11.279Z,5.70
2019-04-28T07:49:41.714Z,5.23
2019-04-28T07:52:22.479Z,5.83
2019-04-28T07:54:52.932Z,5.67
2019-04-28T07:57:24.168Z,5.37
2019-04-28T07:59:54.705Z,4.13
2019-04-28T08:02:25.469Z,11.33
2019-04-28T08:04:55.912Z,5.87
2019-04-28T08:07:26.374Z,4.33
2019-04-28T08:09:56.812Z,4.57
2019-04-28T08:12:27.204Z,3.77
2019-04-28T08:14:57.787Z,3.80
2019-04-28T08:17:28.179Z,3.53
2019-04-28T08:19:58.617Z,3.60
2019-04-28T08:22:29.978Z,3.87
2019-04-28T08:25:00.760Z,3.00
2019-04-28T08:27:31.145Z,3.60
2019-04-28T08:30:01.937Z,4.00
2019-04-28T08:32:50.336Z,11.20
2019-04-28T08:35:20.785Z,4.67
2019-04-28T08:37:51.184Z,6.13
2019-04-28T08:40:22.130Z,6.73
2019-04-28T08:42:52.594Z,7.73
2019-04-28T08:45:23.179Z,8.83
2019-04-28T08:47:53.743Z,7.13
2019-04-28T08:50:24.175Z,7.33
2019-04-28T08:52:54.571Z,9.53
2019-04-28T08:55:25.008Z,7.97
2019-04-28T08:57:55.400Z,9.30
2019-04-28T09:00:25.840Z,8.83
2019-04-28T09:02:56.246Z,9.10
2019-04-28T09:05:26.862Z,8.50
2019-04-28T09:07:58.574Z,8.30
2019-04-28T09:10:29.076Z,8.10
2019-04-28T09:12:59.507Z,7.30
2019-04-28T09:15:29.941Z,6.17
2019-04-28T09:18:00.715Z,6.40
2019-04-28T09:20:31.106Z,7.77
2019-04-28T09:23:01.612Z,8.60
2019-04-28T09:25:32.077Z,7.30
2019-04-28T09:28:02.515Z,6.60
2019-04-28T09:30:32.908Z,7.57
2019-04-28T09:33:03.530Z,6.70
2019-04-28T09:35:34.009Z,6.40
2019-04-28T09:38:04.450Z,5.30
2019-04-28T09:40:34.852Z,5.20
2019-04-28T09:43:17.209Z,6.23
2019-04-28T09:45:52.530Z,6.83
2019-04-28T09:48:23.019Z,6.40
2019-04-28T09:50:53.492Z,5.47
2019-04-28T09:53:23.918Z,4.73
2019-04-28T09:55:54.312Z,5.00
2019-04-28T09:58:24.810Z,5.10
2019-04-28T10:00:55.280Z,4.90
2019-04-28T10:03:25.718Z,5.10
2019-04-28T10:05:56.184Z,4.70
2019-04-28T10:08:26.877Z,4.20
2019-04-28T10:10:57.403Z,3.73
2019-04-28T10:13:27.890Z,3.57
2019-04-28T10:15:58.350Z,3.90
2019-04-28T10:18:29.163Z,3.40
2019-04-28T10:20:59.561Z,3.40
2019-04-28T10:23:29.988Z,3.60
2019-04-28T10:26:00.379Z,4.20
2019-04-28T10:28:31.135Z,5.90
2019-04-28T10:31:01.604Z,5.67
2019-04-28T10:33:32.032Z,7.60
2019-04-28T10:36:02.575Z,8.67
2019-04-28T10:38:33.144Z,8.10
2019-04-28T10:41:05.181Z,7.10
2019-04-28T10:43:35.617Z,7.10
2019-04-28T10:46:06.226Z,7.30
2019-04-28T10:48:36.683Z,9.20
2019-04-28T10:51:07.139Z,9.67
2019-04-28T10:53:37.573Z,7.57
2019-04-28T10:56:07.973Z,6.73
2019-04-28T10:58:38.888Z,6.90
2019-04-28T11:01:09.338Z,7.63
2019-04-28T11:03:40.143Z,7.27
2019-04-28T11:06:12.622Z,7.63
2019-04-28T11:08:45.029Z,7.97
2019-04-28T11:11:17.419Z,8.10
2019-04-28T11:13:48.098Z,9.13
2019-04-28T11:16:20.197Z,8.93
2019-04-28T11:18:50.670Z,8.17
2019-04-28T11:21:21.837Z,8.57
2019-04-28T11:23:52.403Z,8.93
2019-04-28T11:26:23.024Z,7.73
2019-04-28T11:28:54.772Z,8.73
2019-04-28T11:31:25.441Z,5.10
2019-04-28T11:33:59.929Z,4.13
2019-04-28T11:36:29.999Z,3.17
2019-04-28T11:39:02.002Z,3.40
2019-04-28T11:41:34.139Z,3.00
2019-04-28T11:44:04.910Z,2.50
2019-04-28T11:46:35.412Z,2.70
2019-04-28T11:49:09.230Z,3.57
2019-04-28T11:51:39.949Z,2.93
2019-04-28T11:54:10.511Z,3.00
2019-04-28T11:56:41.941Z,4.33
2019-04-28T11:59:12.608Z,3.67
2019-04-28T12:01:43.301Z,3.23
2019-04-28T12:04:15.440Z,3.70
2019-04-28T12:06:46.024Z,3.03
2019-04-28T12:09:33.282Z,3.53
2019-04-28T12:12:05.461Z,3.37
2019-04-28T12:14:40.292Z,3.50
2019-04-28T12:17:14.397Z,3.70
2019-04-28T12:19:46.130Z,3.73
2019-04-28T12:22:16.887Z,3.67
2019-04-28T12:24:47.384Z,3.77
2019-04-28T12:27:17.884Z,5.03
2019-04-28T12:29:48.265Z,4.33
2019-04-28T12:32:19.123Z,4.53
2019-04-28T12:34:49.650Z,5.57
2019-04-28T12:37:20.083Z,5.57
2019-04-28T12:39:50.484Z,8.43
2019-04-28T12:42:20.918Z,9.63
2019-04-28T12:44:51.419Z,8.70
2019-04-28T12:47:21.920Z,9.60
2019-04-28T12:49:56.915Z,9.30
2019-04-28T12:52:27.747Z,9.03
2019-04-28T12:54:58.153Z,8.13
2019-04-28T12:57:29.555Z,7.93
2019-04-28T13:00:02.416Z,7.43
2019-04-28T13:02:52.118Z,6.50
2019-04-28T13:05:22.977Z,7.73
2019-04-28T13:07:53.706Z,6.67
2019-04-28T13:10:24.168Z,7.07
2019-04-28T13:12:54.672Z,6.70
2019-04-28T13:15:25.113Z,8.97
2019-04-28T13:17:55.666Z,7.57
2019-04-28T13:20:26.067Z,9.20
2019-04-28T13:22:59.834Z,8.80
2019-04-28T13:25:30.551Z,8.40
2019-04-28T13:28:00.989Z,8.23
2019-04-28T13:30:31.558Z,9.00
2019-04-28T13:33:02.004Z,10.33
2019-04-28T13:35:32.942Z,9.50
2019-04-28T13:38:03.698Z,9.97
2019-04-28T13:40:38.705Z,9.73
2019-04-28T13:43:09.229Z,11.00
2019-04-28T13:45:39.734Z,11.20
2019-04-28T13:48:11.298Z,11.43
2019-04-28T13:50:41.777Z,13.40
2019-04-28T13:53:12.336Z,14.37
2019-04-28T13:55:46.840Z,15.47
2019-04-28T13:58:31.140Z,15.00
2019-04-28T14:01:09.125Z,16.97
2019-04-28T14:03:44.033Z,14.83
2019-04-28T14:06:27.714Z,14.50
2019-04-28T14:08:48.309Z,14.53
2019-04-28T14:11:18.775Z,14.10
2019-04-28T14:13:49.302Z,16.20
2019-04-28T14:16:19.821Z,14.53
2019-04-28T14:18:50.265Z,15.23
2019-04-28T14:21:20.755Z,14.83
2019-04-28T14:23:51.355Z,14.93
2019-04-28T14:26:21.795Z,14.47
2019-04-28T14:28:52.223Z,12.47
2019-04-28T14:31:22.726Z,14.33
2019-04-28T14:33:53.128Z,14.10
2019-04-28T14:36:24.531Z,15.47
2019-04-28T14:38:54.931Z,15.70
2019-04-28T14:41:25.443Z,17.63
2019-04-28T14:43:57.453Z,17.67
2019-04-28T14:46:28.934Z,18.43
2019-04-28T14:48:59.427Z,18.23
2019-04-28T14:51:30.085Z,20.60
2019-04-28T14:54:00.792Z,20.53
2019-04-28T14:56:31.225Z,21.83
2019-04-28T14:59:04.101Z,22.40
2019-04-28T15:01:38.290Z,20.07
2019-04-28T15:04:13.097Z,18.03
2019-04-28T15:06:55.513Z,13.00
2019-04-28T15:09:23.887Z,12.77
2019-04-28T15:11:56.024Z,11.10
2019-04-28T15:14:26.428Z,11.97
2019-04-28T15:16:57.124Z,11.03
2019-04-28T15:19:27.638Z,11.50
2019-04-28T15:21:58.935Z,10.50
2019-04-28T15:24:29.337Z,8.70
2019-04-28T15:27:00.002Z,9.13
2019-04-28T15:29:30.820Z,8.87
2019-04-28T15:32:01.321Z,8.67
2019-04-28T15:34:31.761Z,7.83
2019-04-28T15:37:09.662Z,8.80
2019-04-28T15:39:34.285Z,9.70
2019-04-28T15:42:04.757Z,9.83
2019-04-28T15:44:35.183Z,9.73
2019-04-28T15:47:05.720Z,11.43
2019-04-28T15:49:36.164Z,10.50
2019-04-28T15:52:06.563Z,10.63
2019-04-28T15:54:36.997Z,10.83
2019-04-28T15:57:07.384Z,10.30
2019-04-28T15:59:37.828Z,10.10
2019-04-28T16:02:08.466Z,9.90
2019-04-28T16:04:38.908Z,10.83
2019-04-28T16:07:09.299Z,12.60
2019-04-28T16:09:41.173Z,13.37
2019-04-28T16:12:11.613Z,14.80
2019-04-28T16:14:42.061Z,14.87
2019-04-28T16:17:12.524Z,14.70
2019-04-28T16:19:42.981Z,15.60
2019-04-28T16:22:13.436Z,16.47
2019-04-28T16:24:44.349Z,17.40
2019-04-28T16:27:15.610Z,18.30
2019-04-28T16:29:46.051Z,18.13
2019-04-28T16:32:16.480Z,17.43
2019-04-28T16:34:47.248Z,18.23
2019-04-28T16:37:17.747Z,15.87
2019-04-28T16:39:48.188Z,12.50
2019-04-28T16:42:20.400Z,15.13
2019-04-28T16:44:56.930Z,11.93
2019-04-28T16:47:27.333Z,13.60
2019-04-28T16:49:57.858Z,12.27
2019-04-28T16:52:28.541Z,13.10
2019-04-28T16:55:15.786Z,12.03
2019-04-28T16:57:53.385Z,14.03
2019-04-28T17:00:31.446Z,14.77
2019-04-28T17:03:01.902Z,15.67
2019-04-28T17:05:32.359Z,15.97
2019-04-28T17:08:02.928Z,16.17
2019-04-28T17:10:33.573Z,19.73
2019-04-28T17:13:03.968Z,46.13
2019-04-28T17:15:34.428Z,23.93
2019-04-28T17:18:04.883Z,18.30
2019-04-28T17:20:35.462Z,20.67
2019-04-28T17:23:05.926Z,19.73
2019-04-28T17:25:36.736Z,17.27
2019-04-28T17:28:07.290Z,17.07
2019-04-28T17:30:37.727Z,19.30
2019-04-28T17:33:08.283Z,18.80
2019-04-28T17:35:38.912Z,20.00
2019-04-28T17:38:09.377Z,20.13
2019-04-28T17:40:39.959Z,17.17
2019-04-28T17:43:11.696Z,16.70
2019-04-28T17:45:42.281Z,16.53
2019-04-28T17:48:20.415Z,14.50
2019-04-28T17:50:50.996Z,15.07
2019-04-28T17:53:21.382Z,15.33
2019-04-28T17:55:51.824Z,15.63
2019-04-28T17:58:22.221Z,14.97
2019-04-28T18:00:57.165Z,15.20
2019-04-28T18:03:47.390Z,15.80
2019-04-28T18:06:22.021Z,15.00
2019-04-28T18:08:53.695Z,13.17
2019-04-28T18:11:24.132Z,13.17
2019-04-28T18:13:54.726Z,12.87
2019-04-28T18:16:26.870Z,12.20
2019-04-28T18:19:15.195Z,13.57
2019-04-28T18:21:46.783Z,12.27
2019-04-28T18:24:17.282Z,11.67
2019-04-28T18:26:47.861Z,10.00
2019-04-28T18:29:18.326Z,9.57
2019-04-28T18:32:06.916Z,8.90
2019-04-28T18:34:39.142Z,10.50
2019-04-28T18:37:38.945Z,9.63
2019-04-28T18:40:25.945Z,9.97
2019-04-28T18:42:58.152Z,9.93
2019-04-28T18:45:28.661Z,9.07
2019-04-28T18:47:59.838Z,9.63
2019-04-28T18:50:30.575Z,10.70
2019-04-28T18:53:01.058Z,11.03
2019-04-28T18:55:32.134Z,10.83
2019-04-28T18:58:02.528Z,10.53
2019-04-28T19:00:34.675Z,11.67
2019-04-28T19:03:05.141Z,9.47
2019-04-28T19:05:41.231Z,9.20
2019-04-28T19:08:16.984Z,9.20
2019-04-28T19:10:51.610Z,9.63
2019-04-28T19:13:29.265Z,8.33
2019-04-28T19:16:07.018Z,7.43
2019-04-28T19:18:48.150Z,7.83
2019-04-28T19:21:18.625Z,8.10
2019-04-28T19:23:49.023Z,7.60
2019-04-28T19:26:19.604Z,8.07
2019-04-28T19:28:50.075Z,8.23
2019-04-28T19:31:20.621Z,8.77
2019-04-28T19:33:51.227Z,11.33
2019-04-28T19:36:21.739Z,12.07
2019-04-28T19:39:02.961Z,12.83
2019-04-28T19:41:24.759Z,11.77
2019-04-28T19:43:55.328Z,12.53
2019-04-28T19:46:25.870Z,11.87
2019-04-28T19:48:56.262Z,9.70
2019-04-28T19:51:31.895Z,9.30
2019-04-28T19:53:59.587Z,8.27
2019-04-28T19:56:37.742Z,8.97
2019-04-28T19:59:09.791Z,8.23
2019-04-28T20:01:40.314Z,7.47
2019-04-28T20:04:11.167Z,6.83
2019-04-28T20:06:42.573Z,6.40
2019-04-28T20:09:12.960Z,6.20
2019-04-28T20:11:43.670Z,6.10
2019-04-28T20:14:14.142Z,5.33
2019-04-28T20:16:44.704Z,5.40
2019-04-28T20:19:15.235Z,5.53
2019-04-28T20:21:45.803Z,4.60
2019-04-28T20:24:16.210Z,5.13
2019-04-28T20:26:46.770Z,5.57
2019-04-28T20:29:17.306Z,5.57
2019-04-28T20:31:47.816Z,5.07
2019-04-28T20:34:18.279Z,5.13
2019-04-28T20:36:50.361Z,4.93
2019-04-28T20:39:22.512Z,4.97
2019-04-28T20:41:53.014Z,5.23
2019-04-28T20:44:23.452Z,6.00
2019-04-28T20:46:53.940Z,5.23
2019-04-28T20:49:24.392Z,5.37
2019-04-28T20:51:54.815Z,5.77
2019-04-28T20:54:25.266Z,5.50
2019-04-28T20:56:55.735Z,5.40
2019-04-28T20:59:26.173Z,5.50
2019-04-28T21:01:56.662Z,5.27
2019-04-28T21:04:27.214Z,5.77
2019-04-28T21:06:57.622Z,5.73
2019-04-28T21:09:28.079Z,5.63
2019-04-28T21:11:58.638Z,5.10
2019-04-28T21:14:29.117Z,5.57
2019-04-28T21:17:00.937Z,5.17
2019-04-28T21:19:31.612Z,6.10
2019-04-28T21:22:02.016Z,6.20
2019-04-28T21:24:33.539Z,5.27
2019-04-28T21:27:04.123Z,5.30
2019-04-28T21:29:34.563Z,5.60
2019-04-28T21:32:05.110Z,4.97
2019-04-28T21:34:35.594Z,5.17
2019-04-28T21:37:05.992Z,5.03
2019-04-28T21:39:36.447Z,5.87
2019-04-28T21:42:08.480Z,5.83
2019-04-28T21:44:43.505Z,5.90
2019-04-28T21:47:24.294Z,5.20
2019-04-28T21:49:54.730Z,5.07
2019-04-28T21:52:25.122Z,5.37
2019-04-28T21:54:55.630Z,6.27
2019-04-28T21:57:26.144Z,6.17
2019-04-28T21:59:57.543Z,5.77
2019-04-28T22:02:29.562Z,6.63
2019-04-28T22:05:00.090Z,6.47
2019-04-28T22:07:31.748Z,6.97
2019-04-28T22:10:02.257Z,6.53
2019-04-28T22:12:33.125Z,6.17
2019-04-28T22:15:04.348Z,6.53
2019-04-28T22:17:34.910Z,7.63
2019-04-28T22:20:07.781Z,8.00
2019-04-28T22:22:38.247Z,7.53
2019-04-28T22:25:10.391Z,8.60
2019-04-28T22:27:41.919Z,7.67
2019-04-28T22:30:13.003Z,7.90
2019-04-28T22:32:43.468Z,8.07
2019-04-28T22:35:14.711Z,8.20
2019-04-28T22:37:45.112Z,8.10
2019-04-28T22:40:15.688Z,8.70
2019-04-28T22:42:46.488Z,8.37
2019-04-28T22:45:17.364Z,7.93
2019-04-28T22:47:47.793Z,8.70
2019-04-28T22:50:41.445Z,8.83
2019-04-28T22:53:12.351Z,8.90
2019-04-28T22:55:44.382Z,8.73
2019-04-28T22:58:16.458Z,8.77
2019-04-28T23:00:51.559Z,9.50
2019-04-28T23:03:38.458Z,9.17
2019-04-28T23:06:10.570Z,11.63
2019-04-28T23:08:41.173Z,13.13
2019-04-28T23:11:11.613Z,14.17
2019-04-28T23:13:42.120Z,14.23
2019-04-28T23:16:12.528Z,16.33
2019-04-28T23:18:43.100Z,15.27
2019-04-28T23:21:15.138Z,15.60
2019-04-28T23:23:45.581Z,16.03
2019-04-28T23:26:15.980Z,15.87
2019-04-28T23:28:46.420Z,16.73
2019-04-28T23:31:16.815Z,18.13
2019-04-28T23:33:47.340Z,15.83
2019-04-28T23:36:17.736Z,18.60
2019-04-28T23:38:48.172Z,15.70
2019-04-28T23:41:32.325Z,17.90
2019-04-28T23:44:02.772Z,18.10
2019-04-28T23:46:50.767Z,18.63
2019-04-28T23:49:21.277Z,18.43
2019-04-28T23:52:02.462Z,20.00
2019-04-28T23:54:34.548Z,19.83
2019-04-28T23:57:07.305Z,20.23
2019-04-28T23:59:37.221Z,18.83
